createdAt,value
2022-09-28T00:00:09.292Z,18.12
2022-09-28T00:02:43.328Z,18.16
2022-09-28T00:05:14.119Z,18.22
2022-09-28T00:07:45.319Z,18.29
2022-09-28T00:10:15.571Z,18.33
2022-09-28T00:12:45.844Z,18.41
2022-09-28T00:15:16.131Z,18.46
2022-09-28T00:17:47.058Z,18.54
2022-09-28T00:20:18.536Z,18.60
2022-09-28T00:22:49.321Z,18.67
2022-09-28T00:25:20.753Z,18.73
2022-09-28T00:27:54.620Z,18.82
2022-09-28T00:30:26.272Z,18.87
2022-09-28T00:32:57.113Z,18.93
2022-09-28T00:35:27.460Z,19.00
2022-09-28T00:37:57.656Z,19.08
2022-09-28T00:40:27.629Z,19.16
2022-09-28T00:42:58.068Z,19.23
2022-09-28T00:45:29.332Z,19.30
2022-09-28T00:48:01.707Z,19.36
2022-09-28T00:50:38.331Z,19.44
2022-09-28T00:53:23.275Z,19.51
2022-09-28T00:56:04.940Z,19.58
2022-09-28T00:58:43.603Z,19.68
2022-09-28T01:01:14.979Z,19.76
2022-09-28T01:03:50.210Z,19.83
2022-09-28T01:06:28.838Z,19.90
2022-09-28T01:09:04.481Z,20.00
2022-09-28T01:11:36.937Z,20.05
2022-09-28T01:14:12.411Z,20.14
2022-09-28T01:17:10.215Z,20.23
2022-09-28T01:20:10.739Z,20.31
2022-09-28T01:23:15.162Z,20.39
2022-09-28T01:26:19.482Z,20.49
2022-09-28T01:29:01.129Z,20.57
2022-09-28T01:31:35.867Z,20.65
2022-09-28T01:34:26.676Z,20.70
2022-09-28T01:37:00.315Z,20.75
2022-09-28T01:39:39.973Z,20.86
2022-09-28T01:42:30.900Z,20.91
2022-09-28T01:45:10.036Z,21.01
2022-09-28T01:47:44.508Z,21.09
2022-09-28T01:50:24.571Z,21.16
2022-09-28T01:53:01.134Z,21.25
2022-09-28T01:55:38.816Z,21.32
2022-09-28T01:58:20.684Z,21.40
2022-09-28T02:00:59.573Z,21.46
2022-09-28T02:03:39.902Z,21.54
2022-09-28T02:06:21.991Z,21.61
2022-09-28T02:08:57.491Z,21.67
2022-09-28T02:11:38.803Z,21.73
2022-09-28T02:14:13.176Z,21.82
2022-09-28T02:16:46.823Z,21.88
2022-09-28T02:19:23.411Z,21.94
2022-09-28T02:22:01.449Z,22.01
2022-09-28T02:25:11.997Z,22.09
2022-09-28T02:28:01.659Z,22.20
2022-09-28T02:30:37.087Z,22.25
2022-09-28T02:33:28.707Z,22.31
2022-09-28T02:36:01.722Z,22.36
2022-09-28T02:38:34.498Z,22.42
2022-09-28T02:41:33.958Z,22.48
2022-09-28T02:44:25.400Z,22.55
2022-09-28T02:47:05.494Z,22.59
2022-09-28T02:49:47.874Z,22.64
2022-09-28T02:52:27.239Z,22.68
2022-09-28T02:55:15.861Z,22.72
2022-09-28T02:58:11.992Z,22.79
2022-09-28T03:01:05.037Z,22.87
2022-09-28T03:03:44.693Z,22.95
2022-09-28T03:06:22.639Z,23.03
2022-09-28T03:09:16.396Z,23.13
2022-09-28T03:11:55.700Z,23.20
2022-09-28T03:14:25.979Z,23.27
2022-09-28T03:16:59.809Z,23.29
2022-09-28T03:19:34.231Z,23.30
2022-09-28T03:22:04.255Z,23.29
2022-09-28T03:24:33.832Z,23.29
2022-09-28T03:27:07.872Z,23.29
2022-09-28T03:29:39.538Z,23.32
2022-09-28T03:32:10.564Z,23.34
2022-09-28T03:34:43.952Z,23.36
2022-09-28T03:37:13.868Z,23.36
2022-09-28T03:39:44.082Z,23.38
2022-09-28T03:42:14.667Z,23.37
2022-09-28T03:44:49.200Z,23.40
2022-09-28T03:47:21.783Z,23.41
2022-09-28T03:49:52.196Z,23.42
2022-09-28T03:52:22.463Z,23.44
2022-09-28T03:54:52.775Z,23.47
2022-09-28T03:57:22.877Z,23.51
2022-09-28T03:59:52.996Z,23.54
2022-09-28T04:02:23.289Z,23.56
2022-09-28T04:04:54.353Z,23.60
2022-09-28T04:07:28.980Z,23.63
2022-09-28T04:10:01.785Z,23.68
2022-09-28T04:12:32.040Z,23.70
2022-09-28T04:15:02.831Z,23.74
2022-09-28T04:17:37.763Z,23.75
2022-09-28T04:20:18.592Z,23.81
2022-09-28T04:23:02.616Z,23.84
2022-09-28T04:25:33.943Z,23.87
2022-09-28T04:28:22.334Z,23.90
2022-09-28T04:30:53.133Z,23.94
2022-09-28T04:33:23.959Z,23.97
2022-09-28T04:35:54.811Z,24.00
2022-09-28T04:38:48.410Z,24.03
2022-09-28T04:41:15.607Z,24.09
2022-09-28T04:43:48.227Z,24.10
2022-09-28T04:46:18.940Z,24.14
2022-09-28T04:48:56.750Z,24.19
2022-09-28T04:51:59.344Z,24.25
2022-09-28T04:54:30.572Z,24.29
2022-09-28T04:57:01.316Z,24.32
2022-09-28T04:59:32.299Z,24.32
2022-09-28T05:02:03.655Z,24.36
2022-09-28T05:04:52.177Z,24.41
2022-09-28T05:07:38.138Z,24.44
2022-09-28T05:10:10.931Z,24.47
2022-09-28T05:12:42.310Z,24.52
2022-09-28T05:15:13.916Z,24.54
2022-09-28T05:17:45.117Z,24.59
2022-09-28T05:20:48.299Z,24.62
2022-09-28T05:23:19.853Z,24.65
2022-09-28T05:25:56.446Z,24.70
2022-09-28T05:28:31.612Z,24.74
2022-09-28T05:31:37.450Z,24.76
2022-09-28T05:34:07.987Z,24.79
2022-09-28T05:36:41.407Z,24.81
2022-09-28T05:39:11.954Z,24.85
2022-09-28T05:41:42.555Z,24.89
2022-09-28T05:44:12.591Z,24.94
2022-09-28T05:46:43.317Z,24.97
2022-09-28T05:49:15.035Z,24.99
2022-09-28T05:51:45.586Z,25.02
2022-09-28T05:54:18.249Z,25.03
2022-09-28T05:56:52.815Z,25.03
2022-09-28T05:59:24.045Z,25.03
2022-09-28T06:01:54.637Z,25.04
2022-09-28T06:04:25.015Z,25.03
2022-09-28T06:06:55.362Z,25.04
2022-09-28T06:09:26.129Z,25.02
2022-09-28T06:12:13.700Z,25.02
2022-09-28T06:14:48.109Z,25.04
2022-09-28T06:17:19.072Z,25.06
2022-09-28T06:19:56.208Z,25.07
2022-09-28T06:22:29.099Z,25.13
2022-09-28T06:25:08.228Z,25.15
2022-09-28T06:27:40.668Z,25.17
2022-09-28T06:30:11.272Z,25.20
2022-09-28T06:32:43.610Z,25.24
2022-09-28T06:35:16.795Z,25.28
2022-09-28T06:37:48.155Z,25.32
2022-09-28T06:40:22.102Z,25.35
2022-09-28T06:43:04.469Z,25.40
2022-09-28T06:45:55.335Z,25.45
2022-09-28T06:48:46.399Z,25.46
2022-09-28T06:51:24.230Z,25.46
2022-09-28T06:54:10.270Z,25.50
2022-09-28T06:56:51.335Z,25.56
2022-09-28T06:59:23.135Z,25.61
2022-09-28T07:01:54.912Z,25.64
2022-09-28T07:04:46.234Z,25.68
2022-09-28T07:07:36.441Z,25.69
2022-09-28T07:10:32.305Z,25.74
2022-09-28T07:13:48.075Z,25.75
2022-09-28T07:16:14.165Z,25.78
2022-09-28T07:18:46.211Z,25.78
2022-09-28T07:21:27.363Z,25.80
2022-09-28T07:24:02.621Z,25.82
2022-09-28T07:26:43.373Z,25.81
2022-09-28T07:29:22.331Z,25.85
2022-09-28T07:32:13.933Z,25.87
2022-09-28T07:35:18.411Z,25.89
2022-09-28T07:38:00.165Z,25.89
2022-09-28T07:40:49.402Z,25.91
2022-09-28T07:43:27.683Z,25.93
2022-09-28T07:45:57.431Z,25.94
2022-09-28T07:48:27.806Z,25.95
2022-09-28T07:51:16.081Z,25.95
2022-09-28T07:53:59.766Z,25.95
2022-09-28T07:56:55.862Z,25.96
2022-09-28T07:59:41.682Z,25.95
2022-09-28T08:02:33.615Z,25.96
2022-09-28T08:05:04.889Z,25.97
2022-09-28T08:07:35.927Z,25.97
2022-09-28T08:10:08.823Z,25.97
2022-09-28T08:13:06.469Z,25.96
2022-09-28T08:16:05.898Z,25.95
2022-09-28T08:18:52.954Z,25.94
2022-09-28T08:21:44.011Z,25.95
2022-09-28T08:24:16.776Z,25.95
2022-09-28T08:26:48.488Z,25.93
2022-09-28T08:29:20.683Z,25.93
2022-09-28T08:31:55.520Z,25.92
2022-09-28T08:34:43.277Z,25.92
2022-09-28T08:37:31.650Z,25.89
2022-09-28T08:40:28.727Z,25.89
2022-09-28T08:43:35.040Z,25.89
2022-09-28T08:46:38.975Z,25.88
2022-09-28T08:49:39.883Z,25.85
2022-09-28T08:52:39.040Z,25.84
2022-09-28T08:55:46.786Z,25.79
2022-09-28T08:58:29.687Z,25.76
2022-09-28T09:01:00.965Z,25.72
2022-09-28T09:03:37.904Z,25.69
2022-09-28T09:06:29.406Z,25.64
2022-09-28T09:09:35.255Z,25.60
2022-09-28T09:12:10.984Z,25.51
2022-09-28T09:14:51.275Z,25.45
2022-09-28T09:17:41.835Z,25.38
2022-09-28T09:20:33.333Z,25.29
2022-09-28T09:23:40.410Z,25.23
2022-09-28T09:26:25.830Z,25.17
2022-09-28T09:28:56.720Z,25.10
2022-09-28T09:31:40.351Z,25.06
2022-09-28T09:34:45.803Z,25.00
2022-09-28T09:37:59.297Z,24.91
2022-09-28T09:41:09.543Z,24.85
2022-09-28T09:44:33.889Z,24.83
2022-09-28T09:47:41.709Z,24.79
2022-09-28T09:50:51.382Z,24.73
2022-09-28T09:53:31.959Z,24.68
2022-09-28T09:56:31.370Z,24.63
2022-09-28T09:59:29.589Z,24.59
2022-09-28T10:02:26.534Z,24.55
2022-09-28T10:05:29.247Z,24.51
2022-09-28T10:08:13.993Z,24.48
2022-09-28T10:11:09.946Z,24.42
2022-09-28T10:13:44.943Z,24.35
2022-09-28T10:16:35.340Z,24.32
2022-09-28T10:19:13.381Z,24.27
2022-09-28T10:22:06.686Z,24.24
2022-09-28T10:24:49.152Z,24.18
2022-09-28T10:27:25.861Z,24.12
2022-09-28T10:30:13.640Z,24.09
2022-09-28T10:32:46.229Z,24.02
2022-09-28T10:35:22.869Z,23.94
2022-09-28T10:38:21.281Z,23.85
2022-09-28T10:40:57.512Z,23.79
2022-09-28T10:44:07.533Z,23.75
2022-09-28T10:46:43.181Z,23.72
2022-09-28T10:49:23.423Z,23.70
2022-09-28T10:51:58.606Z,23.68
2022-09-28T10:54:34.381Z,23.67
2022-09-28T10:57:05.056Z,23.66
2022-09-28T10:59:57.013Z,23.64
2022-09-28T11:02:36.270Z,23.63
2022-09-28T11:05:24.541Z,23.63
2022-09-28T11:08:01.989Z,23.61
2022-09-28T11:10:41.732Z,23.59
2022-09-28T11:13:16.912Z,23.57
2022-09-28T11:15:57.285Z,23.54
2022-09-28T11:18:35.818Z,23.50
2022-09-28T11:21:17.695Z,23.42
2022-09-28T11:24:25.975Z,23.38
2022-09-28T11:27:01.377Z,23.34
2022-09-28T11:29:41.186Z,23.31
2022-09-28T11:32:27.179Z,23.27
2022-09-28T11:35:50.629Z,23.24
2022-09-28T11:38:24.717Z,23.20
2022-09-28T11:41:35.585Z,23.18
2022-09-28T11:44:47.586Z,23.18
2022-09-28T11:47:42.544Z,23.15
2022-09-28T11:50:21.330Z,23.13
2022-09-28T11:53:06.900Z,23.10
2022-09-28T11:55:44.050Z,23.08
2022-09-28T11:58:26.338Z,23.05
2022-09-28T12:01:23.342Z,23.01
2022-09-28T12:04:32.556Z,22.99
2022-09-28T12:07:16.598Z,22.98
2022-09-28T12:09:59.800Z,22.95
2022-09-28T12:13:04.364Z,22.93
2022-09-28T12:16:45.325Z,22.85
2022-09-28T12:19:09.756Z,22.79
2022-09-28T12:21:53.509Z,22.81
2022-09-28T12:24:29.588Z,22.81
2022-09-28T12:27:44.872Z,22.80
2022-09-28T12:30:24.018Z,22.81
2022-09-28T12:33:00.008Z,22.82
2022-09-28T12:35:29.495Z,22.82
2022-09-28T12:38:40.727Z,22.84
2022-09-28T12:41:25.688Z,22.84
2022-09-28T12:43:58.205Z,22.85
2022-09-28T12:46:54.999Z,22.86
2022-09-28T12:53:33.143Z,22.82
2022-09-28T12:56:08.041Z,22.80
2022-09-28T12:59:05.240Z,22.78
2022-09-28T13:01:54.035Z,22.77
2022-09-28T13:04:42.322Z,22.71
2022-09-28T13:07:19.718Z,22.69
2022-09-28T13:10:08.053Z,22.68
2022-09-28T13:13:08.180Z,22.65
2022-09-28T13:15:44.291Z,22.63
2022-09-28T13:18:14.793Z,22.61
2022-09-28T13:20:57.113Z,22.59
2022-09-28T13:23:37.836Z,22.54
2022-09-28T13:26:33.385Z,22.50
2022-09-28T13:29:14.709Z,22.44
2022-09-28T13:32:01.579Z,22.42
2022-09-28T13:34:35.794Z,22.41
2022-09-28T13:37:23.522Z,22.38
2022-09-28T13:40:00.620Z,22.37
2022-09-28T13:42:49.216Z,22.34
2022-09-28T13:45:25.521Z,22.30
2022-09-28T13:48:38.293Z,22.25
2022-09-28T13:51:14.347Z,22.20
2022-09-28T13:54:09.368Z,22.13
2022-09-28T13:57:03.451Z,22.11
2022-09-28T13:59:36.556Z,22.07
2022-09-28T14:02:27.197Z,22.04
2022-09-28T14:05:27.525Z,22.02
2022-09-28T14:08:28.569Z,21.99
2022-09-28T14:11:20.654Z,21.96
2022-09-28T14:14:01.137Z,21.93
2022-09-28T14:16:35.149Z,21.91
2022-09-28T14:19:12.226Z,21.90
2022-09-28T14:21:57.843Z,21.88
2022-09-28T14:24:57.708Z,21.84
2022-09-28T14:27:39.903Z,21.82
2022-09-28T14:30:25.500Z,21.79
2022-09-28T14:33:01.680Z,21.77
2022-09-28T14:35:51.532Z,21.73
2022-09-28T14:38:43.647Z,21.69
2022-09-28T14:41:38.476Z,21.63
2022-09-28T14:44:20.240Z,21.54
2022-09-28T14:46:52.404Z,21.47
2022-09-28T14:49:24.692Z,21.40
2022-09-28T14:51:58.283Z,21.40
2022-09-28T14:54:42.828Z,21.38
2022-09-28T14:57:25.018Z,21.36
2022-09-28T15:00:01.006Z,21.33
2022-09-28T15:02:41.651Z,21.33
2022-09-28T15:05:20.261Z,21.32
2022-09-28T15:07:56.736Z,21.31
2022-09-28T15:10:43.284Z,21.32
2022-09-28T15:13:25.410Z,21.31
2022-09-28T15:16:17.529Z,21.30
2022-09-28T15:18:48.145Z,21.29
2022-09-28T15:21:20.134Z,21.27
2022-09-28T15:23:51.275Z,21.26
2022-09-28T15:26:33.118Z,21.25
2022-09-28T15:29:06.791Z,21.25
2022-09-28T15:31:38.289Z,21.24
2022-09-28T15:34:53.234Z,21.23
2022-09-28T15:37:40.560Z,21.20
2022-09-28T15:40:18.219Z,21.15
2022-09-28T15:42:48.863Z,21.13
2022-09-28T15:45:32.034Z,21.11
2022-09-28T15:48:26.551Z,21.08
2022-09-28T15:51:13.113Z,21.07
2022-09-28T15:53:59.948Z,21.06
2022-09-28T15:56:31.303Z,21.04
2022-09-28T15:59:20.407Z,21.03
2022-09-28T16:01:51.041Z,21.02
2022-09-28T16:05:03.379Z,21.02
2022-09-28T16:07:55.837Z,20.98
2022-09-28T16:10:27.103Z,20.94
2022-09-28T16:13:11.732Z,20.95
2022-09-28T16:15:43.326Z,20.92
2022-09-28T16:18:26.829Z,20.89
2022-09-28T16:21:20.974Z,20.88
2022-09-28T16:23:59.850Z,20.87
2022-09-28T16:26:43.603Z,20.83
2022-09-28T16:29:42.578Z,20.79
2022-09-28T16:32:28.728Z,20.74
2022-09-28T16:35:23.013Z,20.70
2022-09-28T16:38:07.317Z,20.67
2022-09-28T16:40:44.281Z,20.65
2022-09-28T16:43:32.378Z,20.61
2022-09-28T16:46:10.682Z,20.58
2022-09-28T16:48:52.749Z,20.53
2022-09-28T16:51:24.570Z,20.48
2022-09-28T16:54:12.542Z,20.41
2022-09-28T16:56:42.781Z,20.35
2022-09-28T16:59:14.025Z,20.30
2022-09-28T17:01:49.064Z,20.27
2022-09-28T17:04:20.024Z,20.22
2022-09-28T17:06:51.334Z,20.18
2022-09-28T17:09:23.684Z,20.15
2022-09-28T17:11:58.176Z,20.11
2022-09-28T17:14:28.835Z,20.11
2022-09-28T17:17:08.878Z,20.07
2022-09-28T17:19:40.703Z,20.05
2022-09-28T17:22:15.368Z,20.04
2022-09-28T17:24:47.368Z,20.01
2022-09-28T17:27:22.354Z,19.97
2022-09-28T17:29:52.720Z,19.95
2022-09-28T17:32:22.920Z,19.92
2022-09-28T17:35:06.613Z,19.88
2022-09-28T17:37:45.095Z,19.84
2022-09-28T17:40:26.539Z,19.80
2022-09-28T17:43:02.226Z,19.77
2022-09-28T17:45:35.401Z,19.73
2022-09-28T17:48:05.538Z,19.71
2022-09-28T17:50:37.572Z,19.65
2022-09-28T17:53:08.431Z,19.64
2022-09-28T17:55:40.712Z,19.64
2022-09-28T17:58:18.909Z,19.62
2022-09-28T18:00:54.981Z,19.59
2022-09-28T18:03:27.524Z,19.57
2022-09-28T18:06:05.395Z,19.54
2022-09-28T18:08:36.982Z,19.51
2022-09-28T18:11:09.531Z,19.50
2022-09-28T18:13:40.791Z,19.48
2022-09-28T18:16:11.030Z,19.46
2022-09-28T18:18:41.606Z,19.44
2022-09-28T18:21:11.535Z,19.44
2022-09-28T18:23:41.588Z,19.43
2022-09-28T18:26:15.990Z,19.42
2022-09-28T18:28:46.084Z,19.39
2022-09-28T18:31:20.272Z,19.36
2022-09-28T18:36:37.774Z,19.32
2022-09-28T18:39:07.620Z,19.32
2022-09-28T18:41:37.454Z,19.29
2022-09-28T18:44:07.252Z,19.26
2022-09-28T18:46:37.856Z,19.25
2022-09-28T18:49:08.030Z,19.23
2022-09-28T18:51:38.082Z,19.18
2022-09-28T18:54:08.901Z,19.13
2022-09-28T18:56:43.247Z,19.13
2022-09-28T18:59:13.637Z,19.11
2022-09-28T19:01:44.669Z,19.11
2022-09-28T19:04:15.341Z,19.10
2022-09-28T19:06:47.103Z,19.13
2022-09-28T19:09:16.781Z,19.11
2022-09-28T19:11:46.886Z,19.08
2022-09-28T19:14:18.182Z,19.05
2022-09-28T19:16:48.936Z,19.03
2022-09-28T19:19:23.413Z,19.02
2022-09-28T19:21:55.015Z,19.00
2022-09-28T19:24:28.543Z,18.99
2022-09-28T19:26:58.994Z,18.94
2022-09-28T19:29:29.736Z,18.89
2022-09-28T19:31:59.906Z,18.87
2022-09-28T19:34:31.425Z,18.83
2022-09-28T19:37:05.064Z,18.77
2022-09-28T19:39:35.811Z,18.71
2022-09-28T19:42:05.145Z,18.64
2022-09-28T19:44:37.095Z,18.62
2022-09-28T19:47:10.234Z,18.60
2022-09-28T19:49:42.687Z,18.57
2022-09-28T19:52:17.715Z,18.57
2022-09-28T19:54:58.788Z,18.54
2022-09-28T19:57:31.723Z,18.55
2022-09-28T20:00:03.874Z,18.57
2022-09-28T20:02:37.486Z,18.56
2022-09-28T20:05:07.874Z,18.53
2022-09-28T20:07:38.108Z,18.48
2022-09-28T20:10:08.978Z,18.45
2022-09-28T20:12:42.431Z,18.44
2022-09-28T20:15:12.874Z,18.47
2022-09-28T20:17:43.217Z,18.48
2022-09-28T20:20:13.438Z,18.47
2022-09-28T20:22:45.099Z,18.44
2022-09-28T20:25:15.429Z,18.41
2022-09-28T20:27:45.563Z,18.38
2022-09-28T20:30:16.075Z,18.34
2022-09-28T20:32:49.367Z,18.30
2022-09-28T20:35:32.237Z,18.29
2022-09-28T20:38:09.312Z,18.22
2022-09-28T20:40:42.192Z,18.23
2022-09-28T20:43:12.276Z,18.23
2022-09-28T20:45:42.315Z,18.19
2022-09-28T20:48:12.267Z,18.16
2022-09-28T20:50:43.923Z,18.14
2022-09-28T20:53:13.926Z,18.14
2022-09-28T20:55:45.698Z,18.14
2022-09-28T20:58:15.646Z,18.13
2022-09-28T21:00:45.053Z,18.11
2022-09-28T21:03:14.387Z,18.07
2022-09-28T21:05:44.529Z,18.07
2022-09-28T21:08:15.508Z,18.04
2022-09-28T21:10:46.317Z,18.03
2022-09-28T21:13:16.294Z,18.03
2022-09-28T21:15:46.360Z,18.01
2022-09-28T21:18:16.733Z,17.98
2022-09-28T21:20:48.843Z,17.99
2022-09-28T21:23:24.610Z,17.97
2022-09-28T21:26:13.399Z,17.99
2022-09-28T21:28:45.944Z,17.97
2022-09-28T21:31:16.889Z,17.95
2022-09-28T21:33:47.729Z,17.94
2022-09-28T21:36:18.050Z,17.95
2022-09-28T21:38:49.984Z,17.92
2022-09-28T21:41:20.404Z,17.87
2022-09-28T21:43:50.460Z,17.88
2022-09-28T21:46:20.814Z,17.89
2022-09-28T21:48:58.046Z,17.86
2022-09-28T21:51:28.859Z,17.82
2022-09-28T21:53:59.042Z,17.81
2022-09-28T21:56:30.988Z,17.79
2022-09-28T21:59:02.584Z,17.77
2022-09-28T22:01:33.621Z,17.75
2022-09-28T22:04:04.430Z,17.71
2022-09-28T22:06:35.522Z,17.71
2022-09-28T22:09:06.777Z,17.69
2022-09-28T22:11:37.288Z,17.71
2022-09-28T22:14:07.411Z,17.71
2022-09-28T22:16:37.448Z,17.71
2022-09-28T22:19:07.728Z,17.70
2022-09-28T22:21:39.410Z,17.71
2022-09-28T22:24:10.078Z,17.71
2022-09-28T22:26:41.605Z,17.71
2022-09-28T22:29:12.593Z,17.73
2022-09-28T22:31:43.572Z,17.75
2022-09-28T22:34:13.664Z,17.78
2022-09-28T22:36:43.728Z,17.79
2022-09-28T22:39:13.967Z,17.85
2022-09-28T22:41:44.111Z,17.86
2022-09-28T22:44:14.174Z,17.87
2022-09-28T22:46:44.445Z,17.85
2022-09-28T22:49:15.030Z,17.86
2022-09-28T22:51:45.304Z,17.86
2022-09-28T22:54:18.218Z,17.88
2022-09-28T22:56:48.455Z,17.89
2022-09-28T22:59:18.901Z,17.90
2022-09-28T23:01:49.048Z,17.91
2022-09-28T23:04:21.509Z,17.95
2022-09-28T23:06:51.527Z,17.99
2022-09-28T23:09:21.496Z,18.00
2022-09-28T23:11:53.225Z,18.03
2022-09-28T23:14:26.099Z,18.08
2022-09-28T23:16:56.267Z,18.13
2022-09-28T23:19:27.922Z,18.17
2022-09-28T23:22:00.489Z,18.26
2022-09-28T23:24:30.586Z,18.31
2022-09-28T23:27:00.600Z,18.35
2022-09-28T23:29:30.715Z,18.39
2022-09-28T23:32:00.926Z,18.42
2022-09-28T23:34:31.541Z,18.47
2022-09-28T23:37:01.618Z,18.50
2022-09-28T23:39:31.648Z,18.55
2022-09-28T23:42:01.996Z,18.61
2022-09-28T23:44:35.689Z,18.66
2022-09-28T23:47:07.678Z,18.72
2022-09-28T23:49:38.413Z,18.78
2022-09-28T23:52:09.004Z,18.82
2022-09-28T23:54:39.245Z,18.88
2022-09-28T23:57:09.350Z,18.94
2022-09-28T23:59:41.806Z,18.98
